sensor_id;sensor_type;location;lat;lon;timestamp;P1;durP1;ratioP1;P2;durP2;ratioP2
60979;SDS011;46851;49.160;8.980;2022-09-09T00:00:11;4.65;;;1.30;;
60979;SDS011;46851;49.160;8.980;2022-09-09T00:02:37;6.03;;;1.35;;
60979;SDS011;46851;49.160;8.980;2022-09-09T00:07:48;6.93;;;1.85;;
60979;SDS011;46851;49.160;8.980;2022-09-09T00:10:19;5.10;;;1.40;;
60979;SDS011;46851;49.160;8.980;2022-09-09T00:12:54;5.57;;;1.40;;
60979;SDS011;46851;49.160;8.980;2022-09-09T00:16:12;2.25;;;1.25;;
60979;SDS011;46851;49.160;8.980;2022-09-09T00:18:27;4.88;;;1.40;;
60979;SDS011;46851;49.160;8.980;2022-09-09T00:21:04;4.35;;;1.30;;
60979;SDS011;46851;49.160;8.980;2022-09-09T00:23:38;2.50;;;1.05;;
60979;SDS011;46851;49.160;8.980;2022-09-09T00:28:48;3.33;;;1.30;;
60979;SDS011;46851;49.160;8.980;2022-09-09T00:31:18;3.95;;;1.40;;
60979;SDS011;46851;49.160;8.980;2022-09-09T00:33:46;5.15;;;1.38;;
60979;SDS011;46851;49.160;8.980;2022-09-09T00:36:14;4.85;;;1.50;;
60979;SDS011;46851;49.160;8.980;2022-09-09T00:38:42;2.83;;;1.55;;
60979;SDS011;46851;49.160;8.980;2022-09-09T00:44:31;4.93;;;1.30;;
60979;SDS011;46851;49.160;8.980;2022-09-09T00:54:20;2.10;;;1.45;;
60979;SDS011;46851;49.160;8.980;2022-09-09T00:57:00;9.27;;;1.88;;
60979;SDS011;46851;49.160;8.980;2022-09-09T01:02:13;2.78;;;1.13;;
60979;SDS011;46851;49.160;8.980;2022-09-09T01:04:41;5.50;;;1.45;;
60979;SDS011;46851;49.160;8.980;2022-09-09T01:07:16;4.93;;;1.42;;
60979;SDS011;46851;49.160;8.980;2022-09-09T01:09:52;5.97;;;1.48;;
60979;SDS011;46851;49.160;8.980;2022-09-09T01:12:28;6.05;;;1.35;;
60979;SDS011;46851;49.160;8.980;2022-09-09T01:14:58;4.68;;;1.40;;
60979;SDS011;46851;49.160;8.980;2022-09-09T01:17:32;2.30;;;1.25;;
60979;SDS011;46851;49.160;8.980;2022-09-09T01:27:58;4.57;;;1.40;;
60979;SDS011;46851;49.160;8.980;2022-09-09T01:30:25;5.15;;;1.60;;
60979;SDS011;46851;49.160;8.980;2022-09-09T01:32:56;4.53;;;1.38;;
60979;SDS011;46851;49.160;8.980;2022-09-09T01:35:37;3.35;;;1.30;;
60979;SDS011;46851;49.160;8.980;2022-09-09T01:38:03;9.40;;;1.73;;
60979;SDS011;46851;49.160;8.980;2022-09-09T01:40:29;1.60;;;1.20;;
60979;SDS011;46851;49.160;8.980;2022-09-09T01:42:56;2.65;;;1.40;;
60979;SDS011;46851;49.160;8.980;2022-09-09T01:45:22;3.17;;;1.40;;
60979;SDS011;46851;49.160;8.980;2022-09-09T01:47:49;3.97;;;1.65;;
60979;SDS011;46851;49.160;8.980;2022-09-09T01:50:16;3.95;;;1.50;;
60979;SDS011;46851;49.160;8.980;2022-09-09T01:52:43;9.75;;;1.80;;
60979;SDS011;46851;49.160;8.980;2022-09-09T01:55:10;4.75;;;1.60;;
60979;SDS011;46851;49.160;8.980;2022-09-09T02:00:10;4.57;;;1.45;;
60979;SDS011;46851;49.160;8.980;2022-09-09T02:07:51;7.55;;;1.70;;
60979;SDS011;46851;49.160;8.980;2022-09-09T02:10:31;3.95;;;1.25;;
60979;SDS011;46851;49.160;8.980;2022-09-09T02:13:04;4.90;;;1.50;;
60979;SDS011;46851;49.160;8.980;2022-09-09T02:15:35;10.80;;;1.65;;
60979;SDS011;46851;49.160;8.980;2022-09-09T02:18:04;6.18;;;1.50;;
60979;SDS011;46851;49.160;8.980;2022-09-09T02:20:34;6.60;;;1.40;;
60979;SDS011;46851;49.160;8.980;2022-09-09T02:23:02;4.43;;;1.45;;
60979;SDS011;46851;49.160;8.980;2022-09-09T02:25:29;3.85;;;1.50;;
60979;SDS011;46851;49.160;8.980;2022-09-09T02:27:56;1.33;;;1.00;;
60979;SDS011;46851;49.160;8.980;2022-09-09T02:30:25;6.70;;;1.23;;
60979;SDS011;46851;49.160;8.980;2022-09-09T02:32:53;4.80;;;1.30;;
60979;SDS011;46851;49.160;8.980;2022-09-09T02:35:22;5.10;;;1.83;;
60979;SDS011;46851;49.160;8.980;2022-09-09T02:37:53;3.92;;;1.40;;
60979;SDS011;46851;49.160;8.980;2022-09-09T02:40:20;4.43;;;1.55;;
60979;SDS011;46851;49.160;8.980;2022-09-09T02:42:47;3.58;;;1.50;;
60979;SDS011;46851;49.160;8.980;2022-09-09T02:45:14;6.32;;;1.30;;
60979;SDS011;46851;49.160;8.980;2022-09-09T02:50:15;8.40;;;1.55;;
60979;SDS011;46851;49.160;8.980;2022-09-09T02:57:52;4.55;;;1.48;;
60979;SDS011;46851;49.160;8.980;2022-09-09T03:00:26;3.60;;;1.20;;
60979;SDS011;46851;49.160;8.980;2022-09-09T03:02:52;5.90;;;1.20;;
60979;SDS011;46851;49.160;8.980;2022-09-09T03:05:19;6.47;;;1.30;;
60979;SDS011;46851;49.160;8.980;2022-09-09T03:07:45;6.10;;;0.93;;
60979;SDS011;46851;49.160;8.980;2022-09-09T03:10:11;2.72;;;1.38;;
60979;SDS011;46851;49.160;8.980;2022-09-09T03:12:38;4.50;;;1.10;;
60979;SDS011;46851;49.160;8.980;2022-09-09T03:15:05;7.05;;;1.13;;
60979;SDS011;46851;49.160;8.980;2022-09-09T03:17:31;5.18;;;1.13;;
60979;SDS011;46851;49.160;8.980;2022-09-09T03:19:57;4.40;;;0.88;;
60979;SDS011;46851;49.160;8.980;2022-09-09T03:22:24;3.65;;;0.90;;
60979;SDS011;46851;49.160;8.980;2022-09-09T03:24:50;5.88;;;1.58;;
60979;SDS011;46851;49.160;8.980;2022-09-09T03:27:16;3.33;;;1.10;;
60979;SDS011;46851;49.160;8.980;2022-09-09T03:29:44;5.10;;;1.10;;
60979;SDS011;46851;49.160;8.980;2022-09-09T03:32:10;2.45;;;0.50;;
60979;SDS011;46851;49.160;8.980;2022-09-09T03:34:37;1.88;;;0.70;;
60979;SDS011;46851;49.160;8.980;2022-09-09T03:37:05;3.65;;;1.05;;
60979;SDS011;46851;49.160;8.980;2022-09-09T03:39:31;3.33;;;1.10;;
60979;SDS011;46851;49.160;8.980;2022-09-09T03:41:57;4.15;;;1.00;;
60979;SDS011;46851;49.160;8.980;2022-09-09T03:44:23;6.30;;;1.00;;
60979;SDS011;46851;49.160;8.980;2022-09-09T03:46:49;2.03;;;1.10;;
60979;SDS011;46851;49.160;8.980;2022-09-09T03:49:15;3.60;;;1.00;;
60979;SDS011;46851;49.160;8.980;2022-09-09T03:51:41;2.92;;;1.02;;
60979;SDS011;46851;49.160;8.980;2022-09-09T03:54:07;4.72;;;1.10;;
60979;SDS011;46851;49.160;8.980;2022-09-09T03:56:35;4.43;;;1.05;;
60979;SDS011;46851;49.160;8.980;2022-09-09T03:59:01;2.17;;;0.77;;
60979;SDS011;46851;49.160;8.980;2022-09-09T04:01:27;2.97;;;0.90;;
60979;SDS011;46851;49.160;8.980;2022-09-09T04:03:53;2.13;;;0.85;;
60979;SDS011;46851;49.160;8.980;2022-09-09T04:06:23;5.93;;;1.03;;
60979;SDS011;46851;49.160;8.980;2022-09-09T04:08:49;1.92;;;0.68;;
60979;SDS011;46851;49.160;8.980;2022-09-09T04:11:17;1.75;;;0.60;;
60979;SDS011;46851;49.160;8.980;2022-09-09T04:13:43;6.38;;;0.90;;
60979;SDS011;46851;49.160;8.980;2022-09-09T04:16:10;3.97;;;0.88;;
60979;SDS011;46851;49.160;8.980;2022-09-09T04:18:38;5.03;;;0.80;;
60979;SDS011;46851;49.160;8.980;2022-09-09T04:21:04;6.63;;;1.00;;
60979;SDS011;46851;49.160;8.980;2022-09-09T04:23:32;3.72;;;1.00;;
60979;SDS011;46851;49.160;8.980;2022-09-09T04:25:59;2.65;;;0.80;;
60979;SDS011;46851;49.160;8.980;2022-09-09T04:28:26;4.72;;;1.08;;
60979;SDS011;46851;49.160;8.980;2022-09-09T04:30:52;9.65;;;1.85;;
60979;SDS011;46851;49.160;8.980;2022-09-09T04:33:19;8.10;;;1.23;;
60979;SDS011;46851;49.160;8.980;2022-09-09T04:35:45;6.53;;;1.50;;
60979;SDS011;46851;49.160;8.980;2022-09-09T04:38:13;1.80;;;0.82;;
60979;SDS011;46851;49.160;8.980;2022-09-09T04:40:39;3.00;;;0.88;;
60979;SDS011;46851;49.160;8.980;2022-09-09T04:43:08;4.80;;;1.02;;
60979;SDS011;46851;49.160;8.980;2022-09-09T04:45:34;6.70;;;1.33;;
60979;SDS011;46851;49.160;8.980;2022-09-09T04:48:00;4.20;;;1.20;;
60979;SDS011;46851;49.160;8.980;2022-09-09T04:50:27;5.82;;;1.48;;
60979;SDS011;46851;49.160;8.980;2022-09-09T04:52:53;8.02;;;1.10;;
60979;SDS011;46851;49.160;8.980;2022-09-09T04:55:19;8.27;;;1.23;;
60979;SDS011;46851;49.160;8.980;2022-09-09T04:57:45;6.75;;;1.33;;
60979;SDS011;46851;49.160;8.980;2022-09-09T05:00:11;5.90;;;1.08;;
60979;SDS011;46851;49.160;8.980;2022-09-09T05:02:38;3.47;;;1.13;;
60979;SDS011;46851;49.160;8.980;2022-09-09T05:05:05;5.90;;;1.60;;
60979;SDS011;46851;49.160;8.980;2022-09-09T05:07:31;1.85;;;0.93;;
60979;SDS011;46851;49.160;8.980;2022-09-09T05:09:57;5.28;;;1.00;;
60979;SDS011;46851;49.160;8.980;2022-09-09T05:12:23;6.50;;;1.20;;
60979;SDS011;46851;49.160;8.980;2022-09-09T05:14:50;10.32;;;2.05;;
60979;SDS011;46851;49.160;8.980;2022-09-09T05:17:16;7.50;;;1.35;;
60979;SDS011;46851;49.160;8.980;2022-09-09T05:19:43;5.65;;;1.45;;
60979;SDS011;46851;49.160;8.980;2022-09-09T05:22:09;11.25;;;1.30;;
60979;SDS011;46851;49.160;8.980;2022-09-09T05:24:37;8.05;;;1.60;;
60979;SDS011;46851;49.160;8.980;2022-09-09T05:27:03;1.55;;;1.00;;
60979;SDS011;46851;49.160;8.980;2022-09-09T05:29:30;3.20;;;0.98;;
60979;SDS011;46851;49.160;8.980;2022-09-09T05:31:58;2.30;;;1.00;;
60979;SDS011;46851;49.160;8.980;2022-09-09T05:34:24;4.93;;;1.10;;
60979;SDS011;46851;49.160;8.980;2022-09-09T05:36:50;6.40;;;1.27;;
60979;SDS011;46851;49.160;8.980;2022-09-09T05:39:17;6.22;;;1.20;;
60979;SDS011;46851;49.160;8.980;2022-09-09T05:41:43;15.20;;;2.58;;
60979;SDS011;46851;49.160;8.980;2022-09-09T05:44:09;8.55;;;2.20;;
60979;SDS011;46851;49.160;8.980;2022-09-09T05:46:35;13.55;;;2.95;;
60979;SDS011;46851;49.160;8.980;2022-09-09T05:49:01;18.48;;;3.58;;
60979;SDS011;46851;49.160;8.980;2022-09-09T05:51:28;24.70;;;2.85;;
60979;SDS011;46851;49.160;8.980;2022-09-09T05:53:57;17.35;;;2.10;;
60979;SDS011;46851;49.160;8.980;2022-09-09T05:56:27;18.88;;;2.50;;
60979;SDS011;46851;49.160;8.980;2022-09-09T05:58:53;24.02;;;2.58;;
60979;SDS011;46851;49.160;8.980;2022-09-09T06:01:22;20.13;;;2.17;;
60979;SDS011;46851;49.160;8.980;2022-09-09T06:03:49;12.37;;;1.87;;
60979;SDS011;46851;49.160;8.980;2022-09-09T06:06:17;8.93;;;1.38;;
60979;SDS011;46851;49.160;8.980;2022-09-09T06:08:45;8.25;;;1.85;;
60979;SDS011;46851;49.160;8.980;2022-09-09T06:11:16;6.43;;;1.05;;
60979;SDS011;46851;49.160;8.980;2022-09-09T06:13:43;4.22;;;0.90;;
60979;SDS011;46851;49.160;8.980;2022-09-09T06:16:09;8.25;;;1.00;;
60979;SDS011;46851;49.160;8.980;2022-09-09T06:18:36;3.83;;;1.10;;
60979;SDS011;46851;49.160;8.980;2022-09-09T06:21:05;3.90;;;0.80;;
60979;SDS011;46851;49.160;8.980;2022-09-09T06:23:32;2.37;;;0.87;;
60979;SDS011;46851;49.160;8.980;2022-09-09T06:26:06;8.23;;;2.13;;
60979;SDS011;46851;49.160;8.980;2022-09-09T06:28:33;6.10;;;1.17;;
60979;SDS011;46851;49.160;8.980;2022-09-09T06:30:59;8.80;;;1.10;;
60979;SDS011;46851;49.160;8.980;2022-09-09T06:33:26;1.38;;;0.65;;
60979;SDS011;46851;49.160;8.980;2022-09-09T06:35:53;9.40;;;1.15;;
60979;SDS011;46851;49.160;8.980;2022-09-09T06:38:22;7.18;;;1.05;;
60979;SDS011;46851;49.160;8.980;2022-09-09T06:40:52;3.40;;;0.80;;
60979;SDS011;46851;49.160;8.980;2022-09-09T06:43:19;3.97;;;0.80;;
60979;SDS011;46851;49.160;8.980;2022-09-09T06:45:57;7.40;;;0.80;;
60979;SDS011;46851;49.160;8.980;2022-09-09T06:48:23;4.45;;;0.80;;
60979;SDS011;46851;49.160;8.980;2022-09-09T06:50:51;5.90;;;1.52;;
60979;SDS011;46851;49.160;8.980;2022-09-09T06:53:19;4.88;;;2.75;;
60979;SDS011;46851;49.160;8.980;2022-09-09T06:55:45;4.65;;;1.25;;
60979;SDS011;46851;49.160;8.980;2022-09-09T06:58:11;2.42;;;0.85;;
60979;SDS011;46851;49.160;8.980;2022-09-09T07:00:37;7.22;;;2.08;;
60979;SDS011;46851;49.160;8.980;2022-09-09T07:03:03;3.50;;;0.90;;
60979;SDS011;46851;49.160;8.980;2022-09-09T07:05:31;2.80;;;0.80;;
60979;SDS011;46851;49.160;8.980;2022-09-09T07:07:57;1.60;;;0.60;;
60979;SDS011;46851;49.160;8.980;2022-09-09T07:10:23;6.07;;;1.25;;
60979;SDS011;46851;49.160;8.980;2022-09-09T07:12:50;5.95;;;0.98;;
60979;SDS011;46851;49.160;8.980;2022-09-09T07:15:17;8.70;;;1.67;;
60979;SDS011;46851;49.160;8.980;2022-09-09T07:17:44;11.68;;;1.60;;
60979;SDS011;46851;49.160;8.980;2022-09-09T07:20:10;5.60;;;1.23;;
60979;SDS011;46851;49.160;8.980;2022-09-09T07:22:37;5.72;;;0.68;;
60979;SDS011;46851;49.160;8.980;2022-09-09T07:25:03;5.68;;;0.95;;
60979;SDS011;46851;49.160;8.980;2022-09-09T07:27:30;3.95;;;0.80;;
60979;SDS011;46851;49.160;8.980;2022-09-09T07:29:56;5.45;;;0.77;;
60979;SDS011;46851;49.160;8.980;2022-09-09T07:32:22;10.05;;;1.27;;
60979;SDS011;46851;49.160;8.980;2022-09-09T07:34:48;3.83;;;0.90;;
60979;SDS011;46851;49.160;8.980;2022-09-09T07:37:15;4.05;;;0.98;;
60979;SDS011;46851;49.160;8.980;2022-09-09T07:39:42;4.88;;;1.00;;
60979;SDS011;46851;49.160;8.980;2022-09-09T07:42:08;6.68;;;0.98;;
60979;SDS011;46851;49.160;8.980;2022-09-09T07:44:36;3.90;;;0.98;;
60979;SDS011;46851;49.160;8.980;2022-09-09T07:47:04;2.22;;;0.70;;
60979;SDS011;46851;49.160;8.980;2022-09-09T07:49:30;4.88;;;1.33;;
60979;SDS011;46851;49.160;8.980;2022-09-09T07:51:57;5.05;;;0.70;;
60979;SDS011;46851;49.160;8.980;2022-09-09T07:54:23;8.13;;;1.10;;
60979;SDS011;46851;49.160;8.980;2022-09-09T07:56:50;5.35;;;1.25;;
60979;SDS011;46851;49.160;8.980;2022-09-09T07:59:16;8.52;;;1.20;;
60979;SDS011;46851;49.160;8.980;2022-09-09T08:01:44;12.88;;;1.60;;
60979;SDS011;46851;49.160;8.980;2022-09-09T08:04:11;9.10;;;1.05;;
60979;SDS011;46851;49.160;8.980;2022-09-09T08:06:42;5.20;;;1.27;;
60979;SDS011;46851;49.160;8.980;2022-09-09T08:09:09;5.50;;;1.00;;
60979;SDS011;46851;49.160;8.980;2022-09-09T08:11:35;9.20;;;1.50;;
60979;SDS011;46851;49.160;8.980;2022-09-09T08:14:02;6.43;;;0.90;;
60979;SDS011;46851;49.160;8.980;2022-09-09T08:16:30;6.03;;;1.00;;
60979;SDS011;46851;49.160;8.980;2022-09-09T08:18:57;6.55;;;1.10;;
60979;SDS011;46851;49.160;8.980;2022-09-09T08:21:27;5.65;;;1.23;;
60979;SDS011;46851;49.160;8.980;2022-09-09T08:23:53;7.88;;;1.25;;
60979;SDS011;46851;49.160;8.980;2022-09-09T08:26:20;6.35;;;1.10;;
60979;SDS011;46851;49.160;8.980;2022-09-09T08:28:47;4.38;;;1.08;;
60979;SDS011;46851;49.160;8.980;2022-09-09T08:31:18;5.70;;;1.10;;
60979;SDS011;46851;49.160;8.980;2022-09-09T08:33:45;3.20;;;0.77;;
60979;SDS011;46851;49.160;8.980;2022-09-09T08:36:12;5.57;;;1.25;;
60979;SDS011;46851;49.160;8.980;2022-09-09T08:38:40;5.80;;;1.40;;
60979;SDS011;46851;49.160;8.980;2022-09-09T08:43:48;7.75;;;1.20;;
60979;SDS011;46851;49.160;8.980;2022-09-09T08:51:21;5.38;;;1.15;;
60979;SDS011;46851;49.160;8.980;2022-09-09T08:53:49;6.60;;;1.00;;
60979;SDS011;46851;49.160;8.980;2022-09-09T08:56:17;3.20;;;1.13;;
60979;SDS011;46851;49.160;8.980;2022-09-09T08:58:48;10.57;;;1.50;;
60979;SDS011;46851;49.160;8.980;2022-09-09T09:01:17;4.00;;;0.90;;
60979;SDS011;46851;49.160;8.980;2022-09-09T09:03:52;3.25;;;0.60;;
60979;SDS011;46851;49.160;8.980;2022-09-09T09:06:31;3.85;;;1.00;;
60979;SDS011;46851;49.160;8.980;2022-09-09T09:09:24;4.38;;;1.35;;
60979;SDS011;46851;49.160;8.980;2022-09-09T09:11:55;11.02;;;1.48;;
60979;SDS011;46851;49.160;8.980;2022-09-09T09:14:29;9.30;;;1.08;;
60979;SDS011;46851;49.160;8.980;2022-09-09T09:19:32;3.17;;;0.60;;
60979;SDS011;46851;49.160;8.980;2022-09-09T09:26:57;33.95;;;2.30;;
60979;SDS011;46851;49.160;8.980;2022-09-09T09:29:24;42.38;;;4.55;;
60979;SDS011;46851;49.160;8.980;2022-09-09T09:31:54;30.45;;;2.50;;
60979;SDS011;46851;49.160;8.980;2022-09-09T09:34:21;23.08;;;1.85;;
60979;SDS011;46851;49.160;8.980;2022-09-09T09:36:57;3.20;;;0.80;;
60979;SDS011;46851;49.160;8.980;2022-09-09T09:39:30;7.15;;;0.82;;
60979;SDS011;46851;49.160;8.980;2022-09-09T09:42:11;3.38;;;0.52;;
60979;SDS011;46851;49.160;8.980;2022-09-09T09:44:40;8.63;;;0.77;;
60979;SDS011;46851;49.160;8.980;2022-09-09T09:49:35;2.88;;;0.88;;
60979;SDS011;46851;49.160;8.980;2022-09-09T09:52:05;2.47;;;0.57;;
60979;SDS011;46851;49.160;8.980;2022-09-09T09:54:33;3.83;;;0.65;;
60979;SDS011;46851;49.160;8.980;2022-09-09T09:57:14;5.60;;;1.15;;
60979;SDS011;46851;49.160;8.980;2022-09-09T09:59:40;3.60;;;0.93;;
60979;SDS011;46851;49.160;8.980;2022-09-09T10:02:23;4.30;;;0.93;;
60979;SDS011;46851;49.160;8.980;2022-09-09T10:05:00;10.80;;;1.10;;
60979;SDS011;46851;49.160;8.980;2022-09-09T10:07:26;7.15;;;1.27;;
60979;SDS011;46851;49.160;8.980;2022-09-09T10:09:54;4.88;;;0.75;;
60979;SDS011;46851;49.160;8.980;2022-09-09T10:12:39;2.13;;;0.88;;
60979;SDS011;46851;49.160;8.980;2022-09-09T10:17:50;3.55;;;0.80;;
60979;SDS011;46851;49.160;8.980;2022-09-09T10:25:39;8.55;;;0.93;;
60979;SDS011;46851;49.160;8.980;2022-09-09T10:35:54;4.65;;;1.48;;
60979;SDS011;46851;49.160;8.980;2022-09-09T10:38:28;6.03;;;0.70;;
60979;SDS011;46851;49.160;8.980;2022-09-09T10:53:52;2.13;;;0.60;;
60979;SDS011;46851;49.160;8.980;2022-09-09T10:56:19;4.55;;;0.70;;
60979;SDS011;46851;49.160;8.980;2022-09-09T10:59:34;5.85;;;0.70;;
60979;SDS011;46851;49.160;8.980;2022-09-09T11:04:23;5.13;;;0.70;;
60979;SDS011;46851;49.160;8.980;2022-09-09T11:06:53;4.18;;;0.90;;
60979;SDS011;46851;49.160;8.980;2022-09-09T11:09:21;2.23;;;0.60;;
60979;SDS011;46851;49.160;8.980;2022-09-09T11:11:52;4.32;;;0.90;;
60979;SDS011;46851;49.160;8.980;2022-09-09T11:16:58;2.67;;;0.90;;
60979;SDS011;46851;49.160;8.980;2022-09-09T11:21:52;5.18;;;1.17;;
60979;SDS011;46851;49.160;8.980;2022-09-09T11:24:21;5.38;;;1.10;;
60979;SDS011;46851;49.160;8.980;2022-09-09T11:26:51;4.57;;;1.38;;
60979;SDS011;46851;49.160;8.980;2022-09-09T11:34:38;5.60;;;1.00;;
60979;SDS011;46851;49.160;8.980;2022-09-09T11:44:38;6.47;;;0.90;;
60979;SDS011;46851;49.160;8.980;2022-09-09T11:47:15;4.35;;;0.70;;
60979;SDS011;46851;49.160;8.980;2022-09-09T11:49:41;5.65;;;0.77;;
60979;SDS011;46851;49.160;8.980;2022-09-09T11:52:12;3.67;;;0.80;;
60979;SDS011;46851;49.160;8.980;2022-09-09T11:54:46;3.75;;;0.80;;
60979;SDS011;46851;49.160;8.980;2022-09-09T11:57:26;3.58;;;0.68;;
60979;SDS011;46851;49.160;8.980;2022-09-09T11:59:53;6.68;;;0.77;;
60979;SDS011;46851;49.160;8.980;2022-09-09T12:02:22;2.45;;;0.55;;
60979;SDS011;46851;49.160;8.980;2022-09-09T12:04:54;2.45;;;0.60;;
60979;SDS011;46851;49.160;8.980;2022-09-09T12:07:23;2.50;;;0.50;;
60979;SDS011;46851;49.160;8.980;2022-09-09T12:10:04;7.40;;;1.13;;
60979;SDS011;46851;49.160;8.980;2022-09-09T12:12:35;3.63;;;0.57;;
60979;SDS011;46851;49.160;8.980;2022-09-09T12:20:16;2.78;;;0.52;;
60979;SDS011;46851;49.160;8.980;2022-09-09T12:25:16;3.40;;;0.47;;
60979;SDS011;46851;49.160;8.980;2022-09-09T12:30:34;3.95;;;0.63;;
60979;SDS011;46851;49.160;8.980;2022-09-09T12:33:06;3.05;;;0.73;;
60979;SDS011;46851;49.160;8.980;2022-09-09T12:35:34;1.25;;;0.32;;
60979;SDS011;46851;49.160;8.980;2022-09-09T12:38:03;1.17;;;0.40;;
60979;SDS011;46851;49.160;8.980;2022-09-09T12:40:33;2.93;;;0.60;;
60979;SDS011;46851;49.160;8.980;2022-09-09T12:43:19;6.97;;;0.60;;
60979;SDS011;46851;49.160;8.980;2022-09-09T12:45:46;2.17;;;0.45;;
60979;SDS011;46851;49.160;8.980;2022-09-09T12:48:15;3.22;;;0.57;;
60979;SDS011;46851;49.160;8.980;2022-09-09T12:50:44;1.70;;;0.60;;
60979;SDS011;46851;49.160;8.980;2022-09-09T12:53:21;3.00;;;0.70;;
60979;SDS011;46851;49.160;8.980;2022-09-09T12:55:59;3.50;;;0.65;;
60979;SDS011;46851;49.160;8.980;2022-09-09T12:58:27;3.58;;;0.60;;
60979;SDS011;46851;49.160;8.980;2022-09-09T13:00:58;5.40;;;0.98;;
60979;SDS011;46851;49.160;8.980;2022-09-09T13:03:24;4.45;;;0.68;;
60979;SDS011;46851;49.160;8.980;2022-09-09T13:05:50;2.38;;;0.50;;
60979;SDS011;46851;49.160;8.980;2022-09-09T13:08:18;4.50;;;0.70;;
60979;SDS011;46851;49.160;8.980;2022-09-09T13:10:50;10.40;;;1.35;;
60979;SDS011;46851;49.160;8.980;2022-09-09T13:13:21;4.07;;;0.80;;
60979;SDS011;46851;49.160;8.980;2022-09-09T13:15:51;8.13;;;0.73;;
60979;SDS011;46851;49.160;8.980;2022-09-09T13:18:19;2.50;;;0.60;;
60979;SDS011;46851;49.160;8.980;2022-09-09T13:20:47;3.08;;;0.80;;
60979;SDS011;46851;49.160;8.980;2022-09-09T13:23:13;5.38;;;0.75;;
60979;SDS011;46851;49.160;8.980;2022-09-09T13:25:42;5.57;;;0.68;;
60979;SDS011;46851;49.160;8.980;2022-09-09T13:28:20;7.43;;;0.88;;
60979;SDS011;46851;49.160;8.980;2022-09-09T13:30:54;4.38;;;0.93;;
60979;SDS011;46851;49.160;8.980;2022-09-09T13:33:24;6.95;;;0.93;;
60979;SDS011;46851;49.160;8.980;2022-09-09T13:38:20;1.63;;;0.60;;
60979;SDS011;46851;49.160;8.980;2022-09-09T13:41:00;8.38;;;3.33;;
60979;SDS011;46851;49.160;8.980;2022-09-09T13:43:47;9.82;;;1.77;;
60979;SDS011;46851;49.160;8.980;2022-09-09T13:49:02;7.55;;;1.15;;
60979;SDS011;46851;49.160;8.980;2022-09-09T13:51:36;5.38;;;0.88;;
60979;SDS011;46851;49.160;8.980;2022-09-09T13:54:03;8.63;;;0.98;;
60979;SDS011;46851;49.160;8.980;2022-09-09T13:56:31;7.05;;;1.20;;
60979;SDS011;46851;49.160;8.980;2022-09-09T13:58:57;10.32;;;0.77;;
60979;SDS011;46851;49.160;8.980;2022-09-09T14:01:23;6.20;;;0.70;;
60979;SDS011;46851;49.160;8.980;2022-09-09T14:03:49;3.92;;;0.60;;
60979;SDS011;46851;49.160;8.980;2022-09-09T14:06:16;6.55;;;0.93;;
60979;SDS011;46851;49.160;8.980;2022-09-09T14:08:43;4.90;;;0.80;;
60979;SDS011;46851;49.160;8.980;2022-09-09T14:11:11;4.43;;;0.82;;
60979;SDS011;46851;49.160;8.980;2022-09-09T14:13:38;4.28;;;0.82;;
60979;SDS011;46851;49.160;8.980;2022-09-09T14:16:04;3.70;;;0.75;;
60979;SDS011;46851;49.160;8.980;2022-09-09T14:18:30;6.03;;;0.70;;
60979;SDS011;46851;49.160;8.980;2022-09-09T14:20:56;4.70;;;1.02;;
60979;SDS011;46851;49.160;8.980;2022-09-09T14:23:23;2.97;;;0.68;;
60979;SDS011;46851;49.160;8.980;2022-09-09T14:25:50;5.60;;;0.82;;
60979;SDS011;46851;49.160;8.980;2022-09-09T14:28:16;3.75;;;0.77;;
60979;SDS011;46851;49.160;8.980;2022-09-09T14:30:43;3.38;;;0.60;;
60979;SDS011;46851;49.160;8.980;2022-09-09T14:33:12;4.28;;;0.80;;
60979;SDS011;46851;49.160;8.980;2022-09-09T14:35:39;3.13;;;0.70;;
60979;SDS011;46851;49.160;8.980;2022-09-09T14:38:06;3.53;;;0.75;;
60979;SDS011;46851;49.160;8.980;2022-09-09T14:40:33;4.65;;;0.85;;
60979;SDS011;46851;49.160;8.980;2022-09-09T14:42:59;4.65;;;0.60;;
60979;SDS011;46851;49.160;8.980;2022-09-09T14:45:25;4.72;;;0.90;;
60979;SDS011;46851;49.160;8.980;2022-09-09T14:47:52;5.93;;;1.00;;
60979;SDS011;46851;49.160;8.980;2022-09-09T14:50:18;8.00;;;0.90;;
60979;SDS011;46851;49.160;8.980;2022-09-09T14:52:44;7.22;;;0.88;;
60979;SDS011;46851;49.160;8.980;2022-09-09T14:55:11;3.85;;;0.63;;
60979;SDS011;46851;49.160;8.980;2022-09-09T14:57:37;2.53;;;0.65;;
60979;SDS011;46851;49.160;8.980;2022-09-09T15:00:05;3.95;;;0.82;;
60979;SDS011;46851;49.160;8.980;2022-09-09T15:02:32;6.53;;;1.17;;
60979;SDS011;46851;49.160;8.980;2022-09-09T15:04:58;5.97;;;0.70;;
60979;SDS011;46851;49.160;8.980;2022-09-09T15:07:24;3.28;;;0.60;;
60979;SDS011;46851;49.160;8.980;2022-09-09T15:09:50;5.85;;;0.75;;
60979;SDS011;46851;49.160;8.980;2022-09-09T15:12:17;3.33;;;0.70;;
60979;SDS011;46851;49.160;8.980;2022-09-09T15:14:44;3.17;;;0.70;;
60979;SDS011;46851;49.160;8.980;2022-09-09T15:17:10;5.20;;;0.70;;
60979;SDS011;46851;49.160;8.980;2022-09-09T15:19:36;5.38;;;0.68;;
60979;SDS011;46851;49.160;8.980;2022-09-09T15:22:03;2.75;;;0.70;;
60979;SDS011;46851;49.160;8.980;2022-09-09T15:24:30;3.47;;;0.70;;
60979;SDS011;46851;49.160;8.980;2022-09-09T15:26:56;9.10;;;1.60;;
60979;SDS011;46851;49.160;8.980;2022-09-09T15:29:22;2.92;;;0.68;;
60979;SDS011;46851;49.160;8.980;2022-09-09T15:31:48;6.03;;;0.80;;
60979;SDS011;46851;49.160;8.980;2022-09-09T15:34:14;3.20;;;0.80;;
60979;SDS011;46851;49.160;8.980;2022-09-09T15:36:41;2.17;;;0.60;;
60979;SDS011;46851;49.160;8.980;2022-09-09T15:39:11;5.40;;;1.25;;
60979;SDS011;46851;49.160;8.980;2022-09-09T15:41:40;4.05;;;0.80;;
60979;SDS011;46851;49.160;8.980;2022-09-09T15:44:06;5.43;;;0.70;;
60979;SDS011;46851;49.160;8.980;2022-09-09T15:46:34;4.07;;;0.80;;
60979;SDS011;46851;49.160;8.980;2022-09-09T15:49:07;2.55;;;0.80;;
60979;SDS011;46851;49.160;8.980;2022-09-09T15:51:34;5.70;;;0.70;;
60979;SDS011;46851;49.160;8.980;2022-09-09T15:54:00;1.77;;;0.70;;
60979;SDS011;46851;49.160;8.980;2022-09-09T15:56:27;2.28;;;0.80;;
60979;SDS011;46851;49.160;8.980;2022-09-09T15:58:55;1.48;;;0.40;;
60979;SDS011;46851;49.160;8.980;2022-09-09T16:01:23;3.10;;;0.90;;
60979;SDS011;46851;49.160;8.980;2022-09-09T16:03:49;3.03;;;0.60;;
60979;SDS011;46851;49.160;8.980;2022-09-09T16:06:20;1.20;;;0.40;;
60979;SDS011;46851;49.160;8.980;2022-09-09T16:08:47;1.63;;;0.50;;
60979;SDS011;46851;49.160;8.980;2022-09-09T16:11:25;1.38;;;0.40;;
60979;SDS011;46851;49.160;8.980;2022-09-09T16:13:52;4.43;;;0.57;;
60979;SDS011;46851;49.160;8.980;2022-09-09T16:16:20;2.53;;;0.90;;
60979;SDS011;46851;49.160;8.980;2022-09-09T16:18:47;1.55;;;0.63;;
60979;SDS011;46851;49.160;8.980;2022-09-09T16:21:17;2.00;;;0.50;;
60979;SDS011;46851;49.160;8.980;2022-09-09T16:23:43;5.72;;;0.80;;
60979;SDS011;46851;49.160;8.980;2022-09-09T16:26:10;3.38;;;0.45;;
60979;SDS011;46851;49.160;8.980;2022-09-09T16:28:36;4.20;;;0.60;;
60979;SDS011;46851;49.160;8.980;2022-09-09T16:31:09;1.98;;;0.52;;
60979;SDS011;46851;49.160;8.980;2022-09-09T16:33:36;1.73;;;0.55;;
60979;SDS011;46851;49.160;8.980;2022-09-09T16:36:06;3.42;;;0.68;;
60979;SDS011;46851;49.160;8.980;2022-09-09T16:43:37;0.88;;;0.40;;
60979;SDS011;46851;49.160;8.980;2022-09-09T16:46:22;3.38;;;0.45;;
60979;SDS011;46851;49.160;8.980;2022-09-09T16:48:50;1.60;;;0.40;;
60979;SDS011;46851;49.160;8.980;2022-09-09T16:51:20;4.15;;;0.57;;
60979;SDS011;46851;49.160;8.980;2022-09-09T16:53:48;5.72;;;1.30;;
60979;SDS011;46851;49.160;8.980;2022-09-09T16:56:15;2.40;;;0.50;;
60979;SDS011;46851;49.160;8.980;2022-09-09T16:58:42;1.58;;;0.50;;
60979;SDS011;46851;49.160;8.980;2022-09-09T17:01:08;3.35;;;0.68;;
60979;SDS011;46851;49.160;8.980;2022-09-09T17:03:36;1.23;;;0.47;;
60979;SDS011;46851;49.160;8.980;2022-09-09T17:06:02;1.85;;;0.60;;